sensor_id;sensor_type;location;lat;lon;timestamp;pressure;altitude;pressure_sealevel;temperature;humidity
11347;BME280;5728;42.722;23.258;2022-12-04T00:00:57;95671.00;;;5.77;100.00
11347;BME280;5728;42.722;23.258;2022-12-04T00:03:27;95669.75;;;6.04;100.00
11347;BME280;5728;42.722;23.258;2022-12-04T00:06:01;95671.59;;;6.12;100.00
11347;BME280;5728;42.722;23.258;2022-12-04T00:08:27;95669.94;;;6.16;100.00
11347;BME280;5728;42.722;23.258;2022-12-04T00:10:54;95671.94;;;5.81;100.00
11347;BME280;5728;42.722;23.258;2022-12-04T00:13:20;95680.78;;;5.97;100.00
11347;BME280;5728;42.722;23.258;2022-12-04T00:15:47;95679.38;;;6.14;100.00
11347;BME280;5728;42.722;23.258;2022-12-04T00:18:14;95677.69;;;6.16;100.00
11347;BME280;5728;42.722;23.258;2022-12-04T00:20:41;95678.69;;;6.27;100.00
11347;BME280;5728;42.722;23.258;2022-12-04T00:23:08;95685.94;;;6.52;100.00
11347;BME280;5728;42.722;23.258;2022-12-04T00:25:34;95685.22;;;6.62;98.35
11347;BME280;5728;42.722;23.258;2022-12-04T00:28:01;95686.09;;;6.61;98.67
11347;BME280;5728;42.722;23.258;2022-12-04T00:30:27;95688.84;;;6.75;98.04
11347;BME280;5728;42.722;23.258;2022-12-04T00:32:54;95683.50;;;6.61;98.48
11347;BME280;5728;42.722;23.258;2022-12-04T00:35:21;95683.72;;;6.18;97.78
11347;BME280;5728;42.722;23.258;2022-12-04T00:37:48;95689.91;;;6.29;99.63
11347;BME280;5728;42.722;23.258;2022-12-04T00:40:17;95683.91;;;6.30;98.77
11347;BME280;5728;42.722;23.258;2022-12-04T00:42:44;95679.50;;;6.24;98.95
11347;BME280;5728;42.722;23.258;2022-12-04T00:45:10;95687.94;;;6.14;99.98
11347;BME280;5728;42.722;23.258;2022-12-04T00:47:37;95680.19;;;6.13;100.00
11347;BME280;5728;42.722;23.258;2022-12-04T00:50:04;95676.81;;;6.17;100.00
11347;BME280;5728;42.722;23.258;2022-12-04T00:52:32;95684.75;;;6.30;100.00
11347;BME280;5728;42.722;23.258;2022-12-04T00:54:58;95691.31;;;6.09;100.00
11347;BME280;5728;42.722;23.258;2022-12-04T00:57:25;95688.22;;;6.31;100.00
11347;BME280;5728;42.722;23.258;2022-12-04T00:59:51;95689.03;;;6.30;99.61
11347;BME280;5728;42.722;23.258;2022-12-04T01:02:18;95685.59;;;6.28;100.00
11347;BME280;5728;42.722;23.258;2022-12-04T01:04:44;95684.94;;;6.42;100.00
11347;BME280;5728;42.722;23.258;2022-12-04T01:07:11;95675.34;;;6.31;100.00
11347;BME280;5728;42.722;23.258;2022-12-04T01:09:39;95683.59;;;6.12;100.00
11347;BME280;5728;42.722;23.258;2022-12-04T01:12:06;95678.66;;;6.24;100.00
11347;BME280;5728;42.722;23.258;2022-12-04T01:14:32;95686.66;;;6.42;100.00
11347;BME280;5728;42.722;23.258;2022-12-04T01:16:58;95691.72;;;6.36;100.00
11347;BME280;5728;42.722;23.258;2022-12-04T01:19:25;95689.34;;;6.50;100.00
11347;BME280;5728;42.722;23.258;2022-12-04T01:21:51;95685.25;;;6.64;99.41
11347;BME280;5728;42.722;23.258;2022-12-04T01:24:18;95672.59;;;6.20;99.70
11347;BME280;5728;42.722;23.258;2022-12-04T01:26:46;95670.91;;;6.22;100.00
11347;BME280;5728;42.722;23.258;2022-12-04T01:29:12;95671.81;;;6.26;100.00
11347;BME280;5728;42.722;23.258;2022-12-04T01:31:39;95666.50;;;6.14;100.00
11347;BME280;5728;42.722;23.258;2022-12-04T01:34:05;95669.13;;;6.18;100.00
11347;BME280;5728;42.722;23.258;2022-12-04T01:36:32;95673.47;;;6.21;100.00
11347;BME280;5728;42.722;23.258;2022-12-04T01:38:58;95671.88;;;6.29;100.00
11347;BME280;5728;42.722;23.258;2022-12-04T01:41:25;95676.50;;;5.96;100.00
11347;BME280;5728;42.722;23.258;2022-12-04T01:44:13;95683.66;;;6.13;100.00
11347;BME280;5728;42.722;23.258;2022-12-04T01:46:41;95671.91;;;6.32;100.00
11347;BME280;5728;42.722;23.258;2022-12-04T01:49:08;95665.97;;;6.37;100.00
11347;BME280;5728;42.722;23.258;2022-12-04T01:51:37;95667.84;;;6.48;99.74
11347;BME280;5728;42.722;23.258;2022-12-04T01:54:06;95659.88;;;6.31;100.00
11347;BME280;5728;42.722;23.258;2022-12-04T01:56:35;95661.91;;;6.53;99.76
11347;BME280;5728;42.722;23.258;2022-12-04T01:59:03;95665.44;;;6.58;98.93
11347;BME280;5728;42.722;23.258;2022-12-04T02:01:34;95666.09;;;6.43;99.07
11347;BME280;5728;42.722;23.258;2022-12-04T02:04:01;95665.44;;;6.58;99.08
11347;BME280;5728;42.722;23.258;2022-12-04T02:06:28;95670.69;;;6.67;98.82
11347;BME280;5728;42.722;23.258;2022-12-04T02:08:54;95669.03;;;6.72;97.53
11347;BME280;5728;42.722;23.258;2022-12-04T02:11:23;95660.56;;;6.79;96.97
11347;BME280;5728;42.722;23.258;2022-12-04T02:13:53;95663.00;;;6.69;97.78
11347;BME280;5728;42.722;23.258;2022-12-04T02:16:23;95650.19;;;6.75;97.24
11347;BME280;5728;42.722;23.258;2022-12-04T02:18:55;95649.66;;;6.37;96.95
11347;BME280;5728;42.722;23.258;2022-12-04T02:21:26;95653.31;;;6.51;97.76
11347;BME280;5728;42.722;23.258;2022-12-04T02:24:00;95648.81;;;6.36;98.69
11347;BME280;5728;42.722;23.258;2022-12-04T02:26:39;95659.19;;;6.41;98.76
11347;BME280;5728;42.722;23.258;2022-12-04T02:29:08;95654.84;;;6.40;98.66
11347;BME280;5728;42.722;23.258;2022-12-04T02:31:39;95653.88;;;6.32;97.95
11347;BME280;5728;42.722;23.258;2022-12-04T02:34:09;95652.88;;;6.22;98.60
11347;BME280;5728;42.722;23.258;2022-12-04T02:36:40;95653.09;;;6.36;99.03
11347;BME280;5728;42.722;23.258;2022-12-04T02:39:10;95646.94;;;5.75;100.00
11347;BME280;5728;42.722;23.258;2022-12-04T02:41:39;95645.31;;;5.80;100.00
11347;BME280;5728;42.722;23.258;2022-12-04T02:44:09;95650.81;;;5.99;100.00
11347;BME280;5728;42.722;23.258;2022-12-04T02:46:38;95645.69;;;6.02;100.00
11347;BME280;5728;42.722;23.258;2022-12-04T02:49:07;95647.66;;;6.18;100.00
11347;BME280;5728;42.722;23.258;2022-12-04T02:51:36;95650.00;;;6.03;100.00
11347;BME280;5728;42.722;23.258;2022-12-04T02:54:06;95646.31;;;5.87;100.00
11347;BME280;5728;42.722;23.258;2022-12-04T02:56:35;95647.88;;;5.80;100.00
11347;BME280;5728;42.722;23.258;2022-12-04T02:59:03;95643.84;;;5.93;100.00
11347;BME280;5728;42.722;23.258;2022-12-04T03:01:32;95636.28;;;6.04;100.00
11347;BME280;5728;42.722;23.258;2022-12-04T03:04:02;95644.75;;;5.97;100.00
11347;BME280;5728;42.722;23.258;2022-12-04T03:06:32;95645.38;;;5.84;100.00
11347;BME280;5728;42.722;23.258;2022-12-04T03:09:00;95644.63;;;5.89;100.00
11347;BME280;5728;42.722;23.258;2022-12-04T03:11:29;95644.38;;;5.77;100.00
11347;BME280;5728;42.722;23.258;2022-12-04T03:13:58;95630.94;;;5.92;100.00
11347;BME280;5728;42.722;23.258;2022-12-04T03:16:28;95635.50;;;6.08;100.00
11347;BME280;5728;42.722;23.258;2022-12-04T03:19:00;95634.31;;;5.88;100.00
11347;BME280;5728;42.722;23.258;2022-12-04T03:21:28;95629.28;;;5.94;100.00
11347;BME280;5728;42.722;23.258;2022-12-04T03:23:57;95638.56;;;5.86;100.00
11347;BME280;5728;42.722;23.258;2022-12-04T03:26:26;95634.91;;;5.73;100.00
11347;BME280;5728;42.722;23.258;2022-12-04T03:28:55;95629.94;;;5.84;100.00
11347;BME280;5728;42.722;23.258;2022-12-04T03:31:25;95631.69;;;5.85;100.00
11347;BME280;5728;42.722;23.258;2022-12-04T03:33:56;95623.69;;;5.69;100.00
11347;BME280;5728;42.722;23.258;2022-12-04T03:36:26;95622.84;;;5.70;100.00
11347;BME280;5728;42.722;23.258;2022-12-04T03:38:56;95624.75;;;5.82;100.00
11347;BME280;5728;42.722;23.258;2022-12-04T03:41:25;95630.22;;;6.02;100.00
11347;BME280;5728;42.722;23.258;2022-12-04T03:43:54;95635.25;;;5.93;100.00
11347;BME280;5728;42.722;23.258;2022-12-04T03:46:23;95641.06;;;5.84;100.00
11347;BME280;5728;42.722;23.258;2022-12-04T03:48:53;95630.72;;;5.79;100.00
11347;BME280;5728;42.722;23.258;2022-12-04T03:51:22;95622.63;;;6.09;100.00
11347;BME280;5728;42.722;23.258;2022-12-04T03:53:53;95630.47;;;6.17;100.00
11347;BME280;5728;42.722;23.258;2022-12-04T03:56:22;95620.16;;;6.14;100.00
11347;BME280;5728;42.722;23.258;2022-12-04T03:58:51;95625.19;;;6.08;100.00
11347;BME280;5728;42.722;23.258;2022-12-04T04:01:21;95620.22;;;6.20;100.00
11347;BME280;5728;42.722;23.258;2022-12-04T04:03:48;95626.91;;;6.07;100.00
11347;BME280;5728;42.722;23.258;2022-12-04T04:06:16;95624.19;;;5.98;100.00
11347;BME280;5728;42.722;23.258;2022-12-04T04:08:44;95623.56;;;6.13;100.00
11347;BME280;5728;42.722;23.258;2022-12-04T04:11:15;95625.84;;;5.95;100.00
11347;BME280;5728;42.722;23.258;2022-12-04T04:13:43;95626.44;;;5.81;100.00
11347;BME280;5728;42.722;23.258;2022-12-04T04:16:30;95629.94;;;5.84;100.00
11347;BME280;5728;42.722;23.258;2022-12-04T04:19:15;95629.88;;;5.82;100.00
11347;BME280;5728;42.722;23.258;2022-12-04T04:22:02;95634.84;;;5.70;100.00
11347;BME280;5728;42.722;23.258;2022-12-04T04:24:49;95637.00;;;5.94;100.00
11347;BME280;5728;42.722;23.258;2022-12-04T04:27:18;95630.75;;;5.82;100.00
11347;BME280;5728;42.722;23.258;2022-12-04T04:29:45;95623.25;;;5.95;100.00
11347;BME280;5728;42.722;23.258;2022-12-04T04:32:12;95636.06;;;5.89;100.00
11347;BME280;5728;42.722;23.258;2022-12-04T04:34:42;95638.56;;;5.86;100.00
11347;BME280;5728;42.722;23.258;2022-12-04T04:37:14;95636.06;;;5.90;100.00
11347;BME280;5728;42.722;23.258;2022-12-04T04:39:43;95640.00;;;5.70;100.00
11347;BME280;5728;42.722;23.258;2022-12-04T04:42:14;95640.91;;;5.73;100.00
11347;BME280;5728;42.722;23.258;2022-12-04T04:44:45;95633.97;;;5.69;100.00
11347;BME280;5728;42.722;23.258;2022-12-04T04:47:17;95631.44;;;5.72;100.00
11347;BME280;5728;42.722;23.258;2022-12-04T04:49:45;95636.59;;;5.74;100.00
11347;BME280;5728;42.722;23.258;2022-12-04T04:52:12;95649.53;;;5.75;100.00
11347;BME280;5728;42.722;23.258;2022-12-04T04:54:40;95652.03;;;5.72;100.00
11347;BME280;5728;42.722;23.258;2022-12-04T04:57:07;95652.03;;;5.71;100.00
11347;BME280;5728;42.722;23.258;2022-12-04T04:59:33;95647.59;;;5.64;100.00
11347;BME280;5728;42.722;23.258;2022-12-04T05:02:01;95655.41;;;5.70;100.00
11347;BME280;5728;42.722;23.258;2022-12-04T05:04:28;95660.50;;;5.65;100.00
11347;BME280;5728;42.722;23.258;2022-12-04T05:06:54;95657.41;;;5.85;100.00
11347;BME280;5728;42.722;23.258;2022-12-04T05:09:21;95660.91;;;5.88;100.00
11347;BME280;5728;42.722;23.258;2022-12-04T05:11:47;95661.59;;;5.79;100.00
11347;BME280;5728;42.722;23.258;2022-12-04T05:14:14;95665.69;;;5.68;100.00
11347;BME280;5728;42.722;23.258;2022-12-04T05:16:40;95664.63;;;5.57;100.00
11347;BME280;5728;42.722;23.258;2022-12-04T05:19:08;95662.94;;;5.58;100.00
11347;BME280;5728;42.722;23.258;2022-12-04T05:21:52;95665.19;;;5.41;100.00
11347;BME280;5728;42.722;23.258;2022-12-04T05:24:21;95672.13;;;5.45;100.00
11347;BME280;5728;42.722;23.258;2022-12-04T05:26:47;95677.81;;;5.29;100.00
11347;BME280;5728;42.722;23.258;2022-12-04T05:29:14;95678.03;;;5.40;100.00
11347;BME280;5728;42.722;23.258;2022-12-04T05:31:40;95679.13;;;5.52;100.00
11347;BME280;5728;42.722;23.258;2022-12-04T05:34:08;95667.34;;;5.66;100.00
11347;BME280;5728;42.722;23.258;2022-12-04T05:36:35;95664.44;;;5.47;100.00
11347;BME280;5728;42.722;23.258;2022-12-04T05:39:01;95662.81;;;5.52;100.00
11347;BME280;5728;42.722;23.258;2022-12-04T05:41:28;95665.72;;;5.71;100.00
11347;BME280;5728;42.722;23.258;2022-12-04T05:43:55;95674.38;;;5.73;100.00
11347;BME280;5728;42.722;23.258;2022-12-04T05:46:21;95676.09;;;5.74;100.00
11347;BME280;5728;42.722;23.258;2022-12-04T05:48:51;95676.44;;;5.93;100.00
11347;BME280;5728;42.722;23.258;2022-12-04T05:51:18;95675.47;;;5.86;100.00
11347;BME280;5728;42.722;23.258;2022-12-04T05:53:45;95680.09;;;6.07;100.00
11347;BME280;5728;42.722;23.258;2022-12-04T05:56:11;95686.72;;;5.91;100.00
11347;BME280;5728;42.722;23.258;2022-12-04T05:58:38;95681.81;;;6.08;100.00
11347;BME280;5728;42.722;23.258;2022-12-04T06:01:08;95679.38;;;6.14;100.00
11347;BME280;5728;42.722;23.258;2022-12-04T06:03:35;95678.44;;;6.09;100.00
11347;BME280;5728;42.722;23.258;2022-12-04T06:06:01;95673.03;;;5.94;100.00
11347;BME280;5728;42.722;23.258;2022-12-04T06:08:30;95678.72;;;5.77;100.00
11347;BME280;5728;42.722;23.258;2022-12-04T06:10:56;95675.34;;;5.81;100.00
11347;BME280;5728;42.722;23.258;2022-12-04T06:13:23;95679.94;;;5.96;100.00
11347;BME280;5728;42.722;23.258;2022-12-04T06:15:49;95682.91;;;5.72;100.00
11347;BME280;5728;42.722;23.258;2022-12-04T06:18:16;95681.53;;;5.90;100.00
11347;BME280;5728;42.722;23.258;2022-12-04T06:20:42;95677.25;;;5.90;100.00
11347;BME280;5728;42.722;23.258;2022-12-04T06:23:09;95677.69;;;6.16;100.00
11347;BME280;5728;42.722;23.258;2022-12-04T06:25:37;95680.72;;;5.92;100.00
11347;BME280;5728;42.722;23.258;2022-12-04T06:28:04;95681.03;;;6.12;100.00
11347;BME280;5728;42.722;23.258;2022-12-04T06:30:32;95679.19;;;6.03;100.00
11347;BME280;5728;42.722;23.258;2022-12-04T06:32:58;95675.47;;;5.86;100.00
11347;BME280;5728;42.722;23.258;2022-12-04T06:35:25;95681.69;;;5.99;100.00
11347;BME280;5728;42.722;23.258;2022-12-04T06:37:51;95688.72;;;6.09;100.00
11347;BME280;5728;42.722;23.258;2022-12-04T06:40:18;95690.31;;;6.01;100.00
11347;BME280;5728;42.722;23.258;2022-12-04T06:42:46;95692.81;;;5.99;100.00
11347;BME280;5728;42.722;23.258;2022-12-04T06:45:13;95693.81;;;6.06;100.00
11347;BME280;5728;42.722;23.258;2022-12-04T06:47:40;95694.34;;;5.87;100.00
11347;BME280;5728;42.722;23.258;2022-12-04T06:50:07;95695.41;;;5.98;100.00
11347;BME280;5728;42.722;23.258;2022-12-04T06:52:34;95696.31;;;6.01;100.00
11347;BME280;5728;42.722;23.258;2022-12-04T06:55:00;95691.94;;;5.96;100.00
11347;BME280;5728;42.722;23.258;2022-12-04T06:57:27;95700.78;;;6.11;100.00
11347;BME280;5728;42.722;23.258;2022-12-04T06:59:55;95684.28;;;6.02;100.00
11347;BME280;5728;42.722;23.258;2022-12-04T07:02:21;95687.22;;;6.21;100.00
11347;BME280;5728;42.722;23.258;2022-12-04T07:04:48;95692.31;;;6.18;100.00
11347;BME280;5728;42.722;23.258;2022-12-04T07:07:14;95691.53;;;6.24;100.00
11347;BME280;5728;42.722;23.258;2022-12-04T07:09:41;95687.31;;;6.29;100.00
11347;BME280;5728;42.722;23.258;2022-12-04T07:12:08;95698.63;;;6.38;100.00
11347;BME280;5728;42.722;23.258;2022-12-04T07:14:34;95696.44;;;6.64;99.74
11347;BME280;5728;42.722;23.258;2022-12-04T07:17:02;95690.75;;;6.88;98.91
11347;BME280;5728;42.722;23.258;2022-12-04T07:19:29;95689.16;;;6.97;98.53
11347;BME280;5728;42.722;23.258;2022-12-04T07:21:55;95697.06;;;7.10;98.38
11347;BME280;5728;42.722;23.258;2022-12-04T07:24:22;95699.75;;;7.19;96.63
11347;BME280;5728;42.722;23.258;2022-12-04T07:26:49;95710.28;;;7.37;96.08
11347;BME280;5728;42.722;23.258;2022-12-04T07:29:15;95705.81;;;7.25;95.06
11347;BME280;5728;42.722;23.258;2022-12-04T07:31:42;95710.41;;;7.47;95.08
11347;BME280;5728;42.722;23.258;2022-12-04T07:34:10;95711.94;;;8.14;98.58
11347;BME280;5728;42.722;23.258;2022-12-04T07:36:37;95696.47;;;8.17;94.48
11347;BME280;5728;42.722;23.258;2022-12-04T07:39:04;95691.16;;;7.98;92.74
11347;BME280;5728;42.722;23.258;2022-12-04T07:41:30;95693.41;;;7.66;92.74
11347;BME280;5728;42.722;23.258;2022-12-04T07:43:57;95705.44;;;7.65;93.18
11347;BME280;5728;42.722;23.258;2022-12-04T07:46:24;95702.88;;;7.67;92.60
11347;BME280;5728;42.722;23.258;2022-12-04T07:48:51;95714.00;;;7.60;93.69
11347;BME280;5728;42.722;23.258;2022-12-04T07:51:19;95704.25;;;7.38;93.61
11347;BME280;5728;42.722;23.258;2022-12-04T07:53:47;95694.75;;;7.34;93.45
11347;BME280;5728;42.722;23.258;2022-12-04T07:56:14;95699.81;;;7.25;94.43
11347;BME280;5728;42.722;23.258;2022-12-04T07:58:42;95704.94;;;7.23;94.53
11347;BME280;5728;42.722;23.258;2022-12-04T08:01:11;95691.13;;;7.17;95.07
11347;BME280;5728;42.722;23.258;2022-12-04T08:03:39;95682.56;;;7.19;94.80
11347;BME280;5728;42.722;23.258;2022-12-04T08:06:06;95700.00;;;7.43;94.05
11347;BME280;5728;42.722;23.258;2022-12-04T08:08:35;95702.47;;;7.31;94.36
11347;BME280;5728;42.722;23.258;2022-12-04T08:11:06;95716.09;;;7.21;94.71
11347;BME280;5728;42.722;23.258;2022-12-04T08:13:33;95709.22;;;7.23;94.39
11347;BME280;5728;42.722;23.258;2022-12-04T08:16:00;95704.84;;;7.16;94.39
11347;BME280;5728;42.722;23.258;2022-12-04T08:18:27;95695.53;;;7.27;93.83
11347;BME280;5728;42.722;23.258;2022-12-04T08:20:54;95703.28;;;7.28;93.27
11347;BME280;5728;42.722;23.258;2022-12-04T08:23:27;95689.56;;;7.29;92.96
11347;BME280;5728;42.722;23.258;2022-12-04T08:25:57;95705.09;;;7.34;92.48
11347;BME280;5728;42.722;23.258;2022-12-04T08:28:23;95705.91;;;7.30;93.13
11347;BME280;5728;42.722;23.258;2022-12-04T08:30:50;95703.41;;;7.39;93.25
11347;BME280;5728;42.722;23.258;2022-12-04T08:33:17;95699.19;;;7.44;93.07
11347;BME280;5728;42.722;23.258;2022-12-04T08:35:43;95704.38;;;7.48;92.62
11347;BME280;5728;42.722;23.258;2022-12-04T08:38:10;95698.38;;;7.51;91.68
11347;BME280;5728;42.722;23.258;2022-12-04T08:40:37;95699.50;;;7.76;90.94
11347;BME280;5728;42.722;23.258;2022-12-04T08:43:06;95683.66;;;7.41;91.51
11347;BME280;5728;42.722;23.258;2022-12-04T08:45:32;95699.59;;;7.80;91.06
11347;BME280;5728;42.722;23.258;2022-12-04T08:47:59;95682.44;;;7.91;89.77
11347;BME280;5728;42.722;23.258;2022-12-04T08:50:26;95695.50;;;8.05;89.51
11347;BME280;5728;42.722;23.258;2022-12-04T08:52:53;95698.34;;;8.33;88.67
11347;BME280;5728;42.722;23.258;2022-12-04T08:55:21;95700.94;;;8.32;87.78
11347;BME280;5728;42.722;23.258;2022-12-04T08:57:49;95695.59;;;8.18;88.21
11347;BME280;5728;42.722;23.258;2022-12-04T09:00:18;95682.66;;;8.12;88.39
11347;BME280;5728;42.722;23.258;2022-12-04T09:02:48;95678.41;;;8.17;89.50
11347;BME280;5728;42.722;23.258;2022-12-04T09:05:16;95689.72;;;8.31;88.35
11347;BME280;5728;42.722;23.258;2022-12-04T09:07:43;95690.34;;;8.05;88.30
11347;BME280;5728;42.722;23.258;2022-12-04T09:10:11;95672.19;;;7.99;88.61
11347;BME280;5728;42.722;23.258;2022-12-04T09:12:38;95663.56;;;7.98;89.10
11347;BME280;5728;42.722;23.258;2022-12-04T09:15:05;95665.41;;;8.11;89.01
11347;BME280;5728;42.722;23.258;2022-12-04T09:17:34;95683.56;;;8.19;88.05
11347;BME280;5728;42.722;23.258;2022-12-04T09:20:02;95686.16;;;8.23;88.62
11347;BME280;5728;42.722;23.258;2022-12-04T09:22:29;95681.00;;;8.22;89.09
11347;BME280;5728;42.722;23.258;2022-12-04T09:24:56;95664.06;;;8.59;87.95
11347;BME280;5728;42.722;23.258;2022-12-04T09:27:22;95650.38;;;8.72;86.59
11347;BME280;5728;42.722;23.258;2022-12-04T09:29:49;95639.31;;;8.98;85.24
11347;BME280;5728;42.722;23.258;2022-12-04T09:32:16;95658.19;;;8.84;85.25
11347;BME280;5728;42.722;23.258;2022-12-04T09:34:45;95640.28;;;9.26;84.36
11347;BME280;5728;42.722;23.258;2022-12-04T09:37:12;95643.75;;;9.31;83.22
11347;BME280;5728;42.722;23.258;2022-12-04T09:39:40;95654.94;;;9.26;83.53
11347;BME280;5728;42.722;23.258;2022-12-04T09:42:22;95648.75;;;8.86;84.69
11347;BME280;5728;42.722;23.258;2022-12-04T09:44:58;95632.16;;;8.51;85.78
11347;BME280;5728;42.722;23.258;2022-12-04T09:47:27;95630.41;;;8.50;86.73
11347;BME280;5728;42.722;23.258;2022-12-04T09:49:59;95628.59;;;8.30;87.32
11347;BME280;5728;42.722;23.258;2022-12-04T09:52:37;95644.09;;;8.32;87.22
11347;BME280;5728;42.722;23.258;2022-12-04T09:55:12;95618.09;;;8.12;86.77
11347;BME280;5728;42.722;23.258;2022-12-04T09:57:41;95644.13;;;8.40;87.61
11347;BME280;5728;42.722;23.258;2022-12-04T10:00:12;95613.97;;;8.39;87.13
11347;BME280;5728;42.722;23.258;2022-12-04T10:02:40;95604.50;;;8.39;87.66
11347;BME280;5728;42.722;23.258;2022-12-04T10:05:15;95608.66;;;8.17;88.70
11347;BME280;5728;42.722;23.258;2022-12-04T10:07:50;95600.88;;;8.13;88.25
11347;BME280;5728;42.722;23.258;2022-12-04T10:10:29;95605.09;;;8.05;89.56
11347;BME280;5728;42.722;23.258;2022-12-04T10:13:08;95606.16;;;8.26;88.73
11347;BME280;5728;42.722;23.258;2022-12-04T10:15:42;95589.94;;;8.52;88.59
11347;BME280;5728;42.722;23.258;2022-12-04T10:18:21;95584.88;;;8.73;87.57
11347;BME280;5728;42.722;23.258;2022-12-04T10:24:00;95581.56;;;9.10;84.74
11347;BME280;5728;42.722;23.258;2022-12-04T10:26:34;95578.09;;;9.02;84.94
11347;BME280;5728;42.722;23.258;2022-12-04T10:29:06;95549.53;;;8.76;85.58
11347;BME280;5728;42.722;23.258;2022-12-04T10:31:35;95560.81;;;8.92;85.15
11347;BME280;5728;42.722;23.258;2022-12-04T10:34:06;95565.22;;;9.11;83.90
11347;BME280;5728;42.722;23.258;2022-12-04T10:36:38;95572.19;;;9.48;84.08
11347;BME280;5728;42.722;23.258;2022-12-04T10:39:15;95579.88;;;9.27;83.17
11347;BME280;5728;42.722;23.258;2022-12-04T10:41:50;95567.00;;;9.53;82.64
11347;BME280;5728;42.722;23.258;2022-12-04T10:44:19;95567.00;;;9.54;82.02
11347;BME280;5728;42.722;23.258;2022-12-04T10:46:46;95527.31;;;9.58;81.61
11347;BME280;5728;42.722;23.258;2022-12-04T10:49:16;95554.09;;;9.82;80.45
11347;BME280;5728;42.722;23.258;2022-12-04T10:51:45;95555.78;;;10.34;80.67
11347;BME280;5728;42.722;23.258;2022-12-04T10:54:19;95552.25;;;10.59;77.10
11347;BME280;5728;42.722;23.258;2022-12-04T10:56:51;95562.72;;;10.32;78.09
11347;BME280;5728;42.722;23.258;2022-12-04T10:59:18;95569.63;;;10.27;78.39
11347;BME280;5728;42.722;23.258;2022-12-04T11:01:45;95560.97;;;10.27;79.56
11347;BME280;5728;42.722;23.258;2022-12-04T11:04:20;95560.97;;;10.25;78.66
11347;BME280;5728;42.722;23.258;2022-12-04T11:06:49;95541.84;;;10.65;77.41
11347;BME280;5728;42.722;23.258;2022-12-04T11:09:22;95546.22;;;10.54;78.13
11347;BME280;5728;42.722;23.258;2022-12-04T11:11:51;95534.06;;;10.74;76.27
11347;BME280;5728;42.722;23.258;2022-12-04T11:14:19;95537.66;;;10.22;78.51
11347;BME280;5728;42.722;23.258;2022-12-04T11:16:48;95557.53;;;10.29;78.78
11347;BME280;5728;42.722;23.258;2022-12-04T11:19:23;95547.97;;;10.46;77.22
11347;BME280;5728;42.722;23.258;2022-12-04T11:21:53;95530.72;;;10.36;77.42
11347;BME280;5728;42.722;23.258;2022-12-04T11:24:23;95536.69;;;10.64;76.42
11347;BME280;5728;42.722;23.258;2022-12-04T11:26:52;95526.41;;;10.32;77.93
11347;BME280;5728;42.722;23.258;2022-12-04T11:29:21;95543.63;;;10.48;76.95
11347;BME280;5728;42.722;23.258;2022-12-04T11:31:52;95536.66;;;10.68;76.30
11347;BME280;5728;42.722;23.258;2022-12-04T11:34:23;95529.78;;;10.57;75.48
11347;BME280;5728;42.722;23.258;2022-12-04T11:36:55;95536.44;;;11.14;75.37
11347;BME280;5728;42.722;23.258;2022-12-04T11:39:30;95536.53;;;10.96;74.23
11347;BME280;5728;42.722;23.258;2022-12-04T11:42:00;95550.28;;;11.13;73.62
11347;BME280;5728;42.722;23.258;2022-12-04T11:44:29;95542.53;;;11.11;73.13
11347;BME280;5728;42.722;23.258;2022-12-04T11:46:59;95554.50;;;11.35;72.70
11347;BME280;5728;42.722;23.258;2022-12-04T11:49:29;95534.41;;;11.58;71.57
11347;BME280;5728;42.722;23.258;2022-12-04T11:52:06;95538.59;;;11.88;70.90
11347;BME280;5728;42.722;23.258;2022-12-04T11:54:43;95539.50;;;11.82;70.24
11347;BME280;5728;42.722;23.258;2022-12-04T11:57:22;95545.88;;;11.25;70.87
11347;BME280;5728;42.722;23.258;2022-12-04T12:00:03;95545.00;;;11.31;71.64
11347;BME280;5728;42.722;23.258;2022-12-04T12:02:43;95552.97;;;10.99;72.96
11347;BME280;5728;42.722;23.258;2022-12-04T12:05:26;95543.47;;;10.97;73.19
11347;BME280;5728;42.722;23.258;2022-12-04T12:08:05;95546.91;;;10.96;72.37
11347;BME280;5728;42.722;23.258;2022-12-04T12:10:44;95548.66;;;10.97;73.17
11347;BME280;5728;42.722;23.258;2022-12-04T12:13:21;95557.34;;;10.83;73.67
11347;BME280;5728;42.722;23.258;2022-12-04T12:15:59;95546.16;;;10.68;74.13
11347;BME280;5728;42.722;23.258;2022-12-04T12:18:47;95548.78;;;10.60;74.38
11347;BME280;5728;42.722;23.258;2022-12-04T12:21:21;95557.53;;;9.87;76.33
11347;BME280;5728;42.722;23.258;2022-12-04T12:24:03;95562.69;;;9.46;78.84
11347;BME280;5728;42.722;23.258;2022-12-04T12:26:44;95557.47;;;9.32;79.44
11347;BME280;5728;42.722;23.258;2022-12-04T12:29:20;95553.94;;;9.02;80.73
11347;BME280;5728;42.722;23.258;2022-12-04T12:32:03;95546.09;;;8.79;82.20
11347;BME280;5728;42.722;23.258;2022-12-04T12:34:36;95553.06;;;8.92;81.65
11347;BME280;5728;42.722;23.258;2022-12-04T12:37:10;95564.25;;;8.88;81.86
11347;BME280;5728;42.722;23.258;2022-12-04T12:39:44;95566.00;;;8.92;82.21
11347;BME280;5728;42.722;23.258;2022-12-04T12:42:17;95560.69;;;8.62;83.88
11347;BME280;5728;42.722;23.258;2022-12-04T12:44:50;95558.22;;;8.96;83.04
11347;BME280;5728;42.722;23.258;2022-12-04T12:47:22;95558.19;;;8.75;82.85
11347;BME280;5728;42.722;23.258;2022-12-04T12:49:55;95552.91;;;8.59;84.73
11347;BME280;5728;42.722;23.258;2022-12-04T12:52:29;95557.22;;;8.61;83.57
11347;BME280;5728;42.722;23.258;2022-12-04T12:55:02;95559.00;;;8.70;83.48
11347;BME280;5728;42.722;23.258;2022-12-04T12:57:33;95538.28;;;8.58;83.93
11347;BME280;5728;42.722;23.258;2022-12-04T13:00:03;95540.88;;;8.62;84.69
11347;BME280;5728;42.722;23.258;2022-12-04T13:02:31;95550.34;;;8.62;84.34
11347;BME280;5728;42.722;23.258;2022-12-04T13:05:05;95545.94;;;8.38;85.34
11347;BME280;5728;42.722;23.258;2022-12-04T13:07:42;95546.66;;;8.19;85.25
11347;BME280;5728;42.722;23.258;2022-12-04T13:10:16;95543.06;;;7.93;86.45
11347;BME280;5728;42.722;23.258;2022-12-04T13:12:48;95561.06;;;7.87;86.62
11347;BME280;5728;42.722;23.258;2022-12-04T13:15:17;95552.50;;;7.92;87.50
11347;BME280;5728;42.722;23.258;2022-12-04T13:17:46;95542.03;;;7.76;88.21
11347;BME280;5728;42.722;23.258;2022-12-04T13:20:13;95541.16;;;7.73;88.33